Time,TemperatureF,DewpointF,PressureIn,WindDirection,WindDirectionDegrees,WindSpeedMPH,WindSpeedGustMPH,Humidity,HourlyPrecipIn,Conditions,Clouds,dailyrainin,SoftwareType,DateUTC
2013-01-24 00:01:00,30.8,11.5,30.25,NNE,16,0.0,0.0,44,0.00,,---,0.00,VWS V12.07,2013-01-24 07:01:00,
2013-01-24 00:16:00,28.8,11.1,30.29,NW,321,0.0,0.0,47,0.00,,---,0.00,VWS V12.07,2013-01-24 07:16:00,
2013-01-24 00:31:00,27.8,11.6,30.29,SSE,164,1.0,1.0,50,0.00,,---,0.00,VWS V12.07,2013-01-24 07:31:00,
2013-01-24 00:46:00,28.1,10.9,30.28,SSW,207,0.0,6.0,48,0.00,,---,0.00,VWS V12.07,2013-01-24 07:46:00,
2013-01-24 01:01:00,28.9,11.2,30.28,SSW,194,0.0,0.0,47,0.00,,---,0.00,VWS V12.07,2013-01-24 08:01:00,
2013-01-24 01:16:00,30.6,11.3,30.22,SSW,194,0.0,0.0,44,0.00,,---,0.00,VWS V12.07,2013-01-24 08:16:00,
2013-01-24 01:31:00,32.4,11.9,30.20,South,187,0.0,0.0,42,0.00,,---,0.00,VWS V12.07,2013-01-24 08:31:00,
2013-01-24 01:46:00,32.6,11.5,30.21,South,187,0.0,0.0,41,0.00,,---,0.00,VWS V12.07,2013-01-24 08:46:00,
2013-01-24 02:01:00,31.5,11.6,30.21,South,187,0.0,0.0,43,0.00,,---,0.00,VWS V12.07,2013-01-24 09:01:00,
2013-01-24 02:16:00,31.1,11.2,30.21,SSE,157,0.0,5.0,43,0.00,,---,0.00,VWS V12.07,2013-01-24 09:16:00,
2013-01-24 02:31:00,32.4,10.8,30.18,SSE,161,2.0,7.0,40,0.00,,---,0.00,VWS V12.07,2013-01-24 09:31:00,
2013-01-24 02:46:00,33.6,11.3,30.17,SE,144,0.0,7.0,39,0.00,,---,0.00,VWS V12.07,2013-01-24 09:46:00,
2013-01-24 03:01:00,32.7,11.6,30.18,SSE,149,0.0,0.0,41,0.00,,---,0.00,VWS V12.07,2013-01-24 10:01:00,
2013-01-24 03:16:00,31.3,12.4,30.19,SSE,150,0.0,0.0,45,0.00,,---,0.00,VWS V12.07,2013-01-24 10:16:00,
2013-01-24 03:31:00,30.0,11.2,30.19,SSE,150,0.0,0.0,45,0.00,,---,0.00,VWS V12.07,2013-01-24 10:31:00,
2013-01-24 03:46:00,29.6,11.4,30.18,SSE,150,0.0,0.0,46,0.00,,---,0.00,VWS V12.07,2013-01-24 10:46:00,
2013-01-24 04:01:00,29.7,11.0,30.19,SSE,151,0.0,0.0,45,0.00,,---,0.00,VWS V12.07,2013-01-24 11:01:00,
2013-01-24 04:16:00,29.7,10.5,30.23,SSE,149,0.0,1.0,44,0.00,,---,0.00,VWS V12.07,2013-01-24 11:16:00,
2013-01-24 04:31:00,30.4,11.1,30.25,SSE,153,0.0,0.0,44,0.00,,---,0.00,VWS V12.07,2013-01-24 11:31:00,
2013-01-24 04:46:00,32.1,11.1,30.22,ESE,122,5.0,5.0,41,0.00,,---,0.00,VWS V12.07,2013-01-24 11:46:00,
2013-01-24 05:01:00,33.1,12.0,30.21,SE,138,3.0,5.0,41,0.00,,---,0.00,VWS V12.07,2013-01-24 12:01:00,
2013-01-24 05:16:00,32.7,12.2,30.29,ESE,107,0.0,5.0,42,0.00,,---,0.00,VWS V12.07,2013-01-24 12:16:00,
2013-01-24 05:31:00,33.3,12.2,30.29,SSW,196,10.0,10.0,41,0.00,,---,0.00,VWS V12.07,2013-01-24 12:31:00,
2013-01-24 05:46:00,34.7,12.3,30.28,SE,131,2.0,16.0,39,0.00,,---,0.00,VWS V12.07,2013-01-24 12:46:00,
2013-01-24 06:01:00,34.4,12.6,30.30,SW,230,0.0,0.0,40,0.00,,---,0.00,VWS V12.07,2013-01-24 13:01:00,
2013-01-24 06:16:00,35.1,13.2,30.26,SW,214,2.0,6.0,40,0.00,,---,0.00,VWS V12.07,2013-01-24 13:16:00,
2013-01-24 06:31:00,35.3,12.2,30.26,SE,146,2.0,3.0,38,0.00,,---,0.00,VWS V12.07,2013-01-24 13:31:00,
2013-01-24 06:46:00,35.9,12.2,30.28,SE,142,0.0,12.0,37,0.00,,---,0.00,VWS V12.07,2013-01-24 13:46:00,
2013-01-24 07:01:00,36.2,11.8,30.28,SE,131,2.0,3.0,36,0.00,,---,0.00,VWS V12.07,2013-01-24 14:01:00,
2013-01-24 07:16:00,36.9,16.5,30.28,SE,128,2.0,7.0,43,0.00,,---,0.00,VWS V12.07,2013-01-24 14:16:00,
2013-01-24 07:31:00,42.7,18.9,30.22,SSW,207,1.0,4.0,38,0.00,,---,0.00,VWS V12.07,2013-01-24 14:31:00,
2013-01-24 07:46:00,42.4,19.8,30.23,SW,215,0.0,5.0,40,0.00,,---,0.00,VWS V12.07,2013-01-24 14:46:00,
2013-01-24 08:01:00,42.4,20.4,30.24,SW,215,0.0,1.0,41,0.00,,---,0.00,VWS V12.07,2013-01-24 15:01:00,
2013-01-24 08:16:00,42.5,19.9,30.21,SSW,209,2.0,7.0,40,0.00,,---,0.00,VWS V12.07,2013-01-24 15:16:00,
2013-01-24 08:31:00,44.1,21.3,30.21,WSW,238,2.0,7.0,40,0.00,,---,0.00,VWS V12.07,2013-01-24 15:31:00,
2013-01-24 08:46:00,44.0,21.8,30.20,SW,236,0.0,10.0,41,0.00,,---,0.00,VWS V12.07,2013-01-24 15:46:00,
2013-01-24 09:01:00,45.0,21.5,30.18,SSW,211,7.0,7.0,39,0.00,,---,0.00,VWS V12.07,2013-01-24 16:01:00,
2013-01-24 09:16:00,45.5,22.0,30.20,SW,223,0.0,10.0,39,0.00,,---,0.00,VWS V12.07,2013-01-24 16:16:00,
2013-01-24 09:31:00,46.4,21.6,30.21,SW,220,2.0,2.0,37,0.00,,---,0.00,VWS V12.07,2013-01-24 16:31:00,
2013-01-24 09:46:00,45.6,22.7,30.21,WSW,248,1.0,12.0,40,0.00,,---,0.00,VWS V12.07,2013-01-24 16:46:00,
2013-01-24 10:01:00,44.7,22.5,30.21,SSW,201,2.0,4.0,41,0.00,,---,0.00,VWS V12.07,2013-01-24 17:01:00,
2013-01-24 10:16:00,44.9,23.2,30.16,WSW,254,2.0,8.0,42,0.00,,---,0.00,VWS V12.07,2013-01-24 17:16:00,
2013-01-24 10:31:00,45.5,22.0,30.16,SW,225,1.0,3.0,39,0.00,,---,0.00,VWS V12.07,2013-01-24 17:31:00,
2013-01-24 10:46:00,46.3,21.5,30.16,West,259,0.0,5.0,37,0.00,,---,0.00,VWS V12.07,2013-01-24 17:46:00,
2013-01-24 11:01:00,47.3,21.0,30.14,West,271,0.0,0.0,35,0.00,,---,0.00,VWS V12.07,2013-01-24 18:01:00,
2013-01-24 11:16:00,48.1,21.1,30.17,NNW,331,3.0,4.0,34,0.00,,---,0.00,VWS V12.07,2013-01-24 18:16:00,
2013-01-24 11:31:00,47.0,20.8,30.17,North,351,4.0,4.0,35,0.00,,---,0.00,VWS V12.07,2013-01-24 18:31:00,
2013-01-24 11:46:00,45.8,20.4,30.19,NNW,331,0.0,6.0,36,0.00,,---,0.00,VWS V12.07,2013-01-24 18:46:00,
2013-01-24 12:01:00,45.9,19.8,30.19,North,351,0.0,0.0,35,0.00,,---,0.00,VWS V12.07,2013-01-24 19:01:00,
2013-01-24 12:16:00,45.0,20.3,30.20,NNE,13,0.0,5.0,37,0.00,,---,0.00,VWS V12.07,2013-01-24 19:16:00,
2013-01-24 12:31:00,44.8,20.1,30.19,NNE,12,3.0,3.0,37,0.00,,---,0.00,VWS V12.07,2013-01-24 19:31:00,
2013-01-24 12:46:00,43.9,21.7,30.20,North,9,0.0,7.0,41,0.00,,---,0.00,VWS V12.07,2013-01-24 19:46:00,
2013-01-24 13:01:00,42.2,21.3,30.22,North,355,0.0,5.0,43,0.00,,---,0.00,VWS V12.07,2013-01-24 20:01:00,
2013-01-24 13:16:00,42.0,21.7,30.18,NNW,329,0.0,5.0,44,0.00,,---,0.00,VWS V12.07,2013-01-24 20:16:00,
2013-01-24 13:31:00,42.5,21.6,30.18,NW,317,0.0,0.0,43,0.00,,---,0.00,VWS V12.07,2013-01-24 20:31:00,
2013-01-24 13:46:00,43.1,22.1,30.17,NNW,328,0.0,5.0,43,0.00,,---,0.00,VWS V12.07,2013-01-24 20:46:00,
2013-01-24 14:01:00,43.7,22.7,30.16,NNW,328,0.0,0.0,43,0.00,,---,0.00,VWS V12.07,2013-01-24 21:01:00,
2013-01-24 14:16:00,44.7,22.5,30.15,South,180,7.0,9.0,41,0.00,,---,0.00,VWS V12.07,2013-01-24 21:16:00,
2013-01-24 14:31:00,43.9,24.5,30.17,WSW,247,9.0,12.0,46,0.00,,---,0.00,VWS V12.07,2013-01-24 21:31:00,
2013-01-24 14:46:00,42.9,25.1,30.16,West,264,0.0,12.0,49,0.00,,---,0.00,VWS V12.07,2013-01-24 21:46:00,
2013-01-24 15:01:00,42.7,25.9,30.17,SW,231,1.0,3.0,51,0.00,,---,0.00,VWS V12.07,2013-01-24 22:01:00,
2013-01-24 15:16:00,42.2,26.3,30.20,West,270,1.0,11.0,53,0.00,,---,0.00,VWS V12.07,2013-01-24 22:16:00,
2013-01-24 15:31:00,41.9,26.9,30.20,WNW,286,2.0,2.0,55,0.00,,---,0.00,VWS V12.07,2013-01-24 22:31:00,
2013-01-24 15:46:00,41.1,27.5,30.22,NW,310,0.0,9.0,58,0.00,,---,0.00,VWS V12.07,2013-01-24 22:46:00,
2013-01-24 16:01:00,40.4,28.0,30.22,North,350,0.0,1.0,61,0.00,,---,0.00,VWS V12.07,2013-01-24 23:01:00,
2013-01-24 16:16:00,39.9,28.0,30.20,North,350,0.0,2.0,62,0.00,,---,0.00,VWS V12.07,2013-01-24 23:16:00,
2013-01-24 16:31:00,39.8,28.2,30.20,NNW,341,0.0,0.0,63,0.00,,---,0.00,VWS V12.07,2013-01-24 23:31:00,
2013-01-24 16:46:00,39.5,28.0,30.19,NNW,341,0.0,0.0,63,0.00,,---,0.00,VWS V12.07,2013-01-24 23:46:00,
2013-01-24 17:01:00,38.9,25.8,30.20,South,183,0.0,0.0,59,0.00,,---,0.00,VWS V12.07,2013-01-25 00:01:00,
2013-01-24 17:16:00,38.6,25.1,30.20,ESE,109,0.0,7.0,58,0.00,,---,0.00,VWS V12.07,2013-01-25 00:16:00,
2013-01-24 17:31:00,38.2,24.7,30.19,ESE,109,0.0,0.0,58,0.00,,---,0.00,VWS V12.07,2013-01-25 00:31:00,
2013-01-24 17:46:00,37.8,24.8,30.20,ESE,109,0.0,0.0,59,0.00,,---,0.00,VWS V12.07,2013-01-25 00:46:00,
2013-01-24 18:01:00,37.2,25.8,30.23,ESE,109,0.0,0.0,63,0.00,,---,0.00,VWS V12.07,2013-01-25 01:01:00,
2013-01-24 18:16:00,36.8,26.1,30.22,ESE,109,0.0,0.0,65,0.00,,---,0.00,VWS V12.07,2013-01-25 01:16:00,
2013-01-24 18:31:00,36.8,27.2,30.21,ESE,109,0.0,0.0,68,0.00,,---,0.00,VWS V12.07,2013-01-25 01:31:00,
2013-01-24 18:46:00,36.6,28.4,30.20,ESE,109,1.0,3.0,72,0.00,,---,0.00,VWS V12.07,2013-01-25 01:46:00,
2013-01-24 19:01:00,36.9,28.7,30.19,ESE,109,1.0,7.0,72,0.00,,---,0.00,VWS V12.07,2013-01-25 02:01:00,
2013-01-24 19:16:00,37.1,28.9,30.15,ESE,109,0.0,7.0,72,0.00,,---,0.00,VWS V12.07,2013-01-25 02:16:00,
2013-01-24 19:31:00,37.0,28.8,30.16,North,360,6.0,6.0,72,0.00,,---,0.00,VWS V12.07,2013-01-25 02:31:00,
2013-01-24 19:46:00,32.8,20.9,30.20,North,351,0.0,7.0,61,0.00,,---,0.00,VWS V12.07,2013-01-25 02:46:00,
2013-01-24 20:01:00,32.2,21.4,30.20,North,351,0.0,0.0,64,0.00,,---,0.00,VWS V12.07,2013-01-25 03:01:00,
2013-01-24 20:16:00,32.0,20.5,30.19,North,351,0.0,0.0,62,0.00,,---,0.00,VWS V12.07,2013-01-25 03:16:00,
2013-01-24 20:31:00,32.0,21.2,30.19,North,351,0.0,0.0,64,0.00,,---,0.00,VWS V12.07,2013-01-25 03:31:00,
2013-01-24 20:46:00,31.8,21.4,30.19,North,350,0.0,0.0,65,0.00,,---,0.00,VWS V12.07,2013-01-25 03:46:00,
2013-01-24 21:01:00,31.6,20.8,30.19,North,350,0.0,0.0,64,0.00,,---,0.00,VWS V12.07,2013-01-25 04:01:00,
2013-01-24 21:16:00,31.5,21.1,30.19,North,351,0.0,0.0,65,0.00,,---,0.00,VWS V12.07,2013-01-25 04:16:00,
2013-01-24 21:31:00,31.6,22.3,30.19,North,351,0.0,0.0,68,0.00,,---,0.00,VWS V12.07,2013-01-25 04:31:00,
2013-01-24 21:46:00,31.6,23.3,30.19,North,351,0.0,0.0,71,0.00,,---,0.00,VWS V12.07,2013-01-25 04:46:00,
2013-01-24 22:01:00,31.6,24.0,30.19,North,351,0.0,0.0,73,0.00,,---,0.00,VWS V12.07,2013-01-25 05:01:00,
2013-01-24 22:16:00,31.5,24.2,30.15,North,351,0.0,0.0,74,0.00,,---,0.00,VWS V12.07,2013-01-25 05:16:00,
2013-01-24 22:31:00,30.8,24.5,30.15,North,350,0.0,0.0,77,0.00,,---,0.00,VWS V12.07,2013-01-25 05:31:00,
2013-01-24 22:46:00,30.3,24.3,30.18,North,351,0.0,0.0,78,0.00,,---,0.00,VWS V12.07,2013-01-25 05:46:00,
2013-01-24 23:01:00,30.4,25.0,30.18,North,351,0.0,0.0,80,0.00,,---,0.00,VWS V12.07,2013-01-25 06:01:00,
2013-01-24 23:16:00,30.7,25.3,30.19,North,350,0.0,0.0,80,0.00,,---,0.00,VWS V12.07,2013-01-25 06:16:00,
2013-01-24 23:31:00,31.3,26.2,30.19,North,350,0.0,0.0,81,0.00,,---,0.00,VWS V12.07,2013-01-25 06:31:00,
2013-01-24 23:46:00,32.0,26.5,30.18,North,351,0.0,5.0,80,0.00,,---,0.00,VWS V12.07,2013-01-25 06:46:00,